createdAt,value
2019-06-07T00:02:04.344Z,100251.05
2019-06-07T00:04:32.155Z,100253.50
2019-06-07T00:07:00.221Z,100252.94
2019-06-07T00:09:28.260Z,100263.33
2019-06-07T00:11:56.194Z,100283.75
2019-06-07T00:14:24.111Z,100285.09
2019-06-07T00:16:51.993Z,100282.55
2019-06-07T00:19:19.964Z,100287.67
2019-06-07T00:24:19.356Z,100304.22
2019-06-07T00:26:58.259Z,100304.61
2019-06-07T00:29:21.825Z,100313.19
2019-06-07T00:31:50.207Z,100310.98
2019-06-07T00:34:20.042Z,100319.64
2019-06-07T00:36:51.232Z,100319.25
2019-06-07T00:39:24.675Z,100314.53
2019-06-07T00:41:52.325Z,100312.25
2019-06-07T00:44:23.040Z,100315.45
2019-06-07T00:46:52.824Z,100325.48
2019-06-07T00:49:36.218Z,100328.53
2019-06-07T00:51:54.234Z,100325.50
2019-06-07T00:54:24.650Z,100327.38
2019-06-07T00:56:52.575Z,100322.25
2019-06-07T00:59:28.282Z,100321.94
2019-06-07T01:01:50.912Z,100324.08
2019-06-07T01:04:21.256Z,100327.11
2019-06-07T01:06:48.848Z,100331.19
2019-06-07T01:09:17.745Z,100322.98
2019-06-07T01:11:46.161Z,100323.23
2019-06-07T01:14:15.162Z,100322.39
2019-06-07T01:16:56.425Z,100327.20
2019-06-07T01:19:14.043Z,100329.61
2019-06-07T01:21:42.002Z,100334.01
2019-06-07T01:24:12.517Z,100342.17
2019-06-07T01:26:42.608Z,100341.80
2019-06-07T01:29:10.619Z,100340.17
2019-06-07T01:31:38.744Z,100340.69
2019-06-07T01:34:07.683Z,100345.03
2019-06-07T01:36:36.426Z,100345.36
2019-06-07T01:39:14.129Z,100351.10
2019-06-07T01:41:46.850Z,100343.43
2019-06-07T01:44:18.542Z,100338.25
2019-06-07T01:46:47.516Z,100344.53
2019-06-07T01:49:19.683Z,100343.23
2019-06-07T01:51:49.522Z,100338.67
2019-06-07T01:54:55.574Z,100327.67
2019-06-07T01:57:03.260Z,100324.19
2019-06-07T01:59:32.159Z,100323.02
2019-06-07T02:02:01.105Z,100330.98
2019-06-07T02:04:33.592Z,100325.91
2019-06-07T02:07:02.246Z,100323.14
2019-06-07T02:09:38.135Z,100328.53
2019-06-07T02:12:25.072Z,100319.36
2019-06-07T02:14:39.839Z,100324.81
2019-06-07T02:17:08.498Z,100326.96
2019-06-07T02:19:40.424Z,100332.88
2019-06-07T02:22:08.964Z,100332.86
2019-06-07T02:24:38.872Z,100326.06
2019-06-07T02:27:07.157Z,100323.77
2019-06-07T02:29:47.585Z,100330.41
2019-06-07T02:32:37.443Z,100324.95
2019-06-07T02:35:30.926Z,100327.53
2019-06-07T02:37:57.808Z,100319.52
2019-06-07T02:40:37.374Z,100324.03
2019-06-07T02:43:37.163Z,100322.46
2019-06-07T02:46:38.223Z,100319.14
2019-06-07T02:49:39.606Z,100316.31
2019-06-07T02:52:12.936Z,100320.25
2019-06-07T02:55:10.712Z,100312.56
2019-06-07T02:57:59.690Z,100313.61
2019-06-07T03:01:08.946Z,100311.98
2019-06-07T03:03:30.597Z,100312.03
2019-06-07T03:05:59.776Z,100311.77
2019-06-07T03:08:42.862Z,100314.56
2019-06-07T03:11:14.288Z,100309.62
2019-06-07T03:13:46.247Z,100303.04
2019-06-07T03:16:28.699Z,100309.21
2019-06-07T03:19:14.579Z,100305.72
2019-06-07T03:21:44.111Z,100313.92
2019-06-07T03:24:16.647Z,100313.59
2019-06-07T03:29:44.654Z,100311.09
2019-06-07T03:32:15.165Z,100319.88
2019-06-07T03:35:24.956Z,100321.87
2019-06-07T03:38:45.096Z,100327.06
2019-06-07T03:42:06.287Z,100332.17
2019-06-07T03:44:59.120Z,100331.30
2019-06-07T03:51:24.633Z,100339.51
2019-06-07T03:55:21.854Z,100340.03
2019-06-07T03:58:50.252Z,100342.98
2019-06-07T04:01:56.909Z,100348.20
2019-06-07T04:04:44.402Z,100351.29
2019-06-07T04:08:12.269Z,100348.78
2019-06-07T04:10:54.950Z,100354.05
2019-06-07T04:13:09.888Z,100349.20
2019-06-07T04:15:40.885Z,100353.85
2019-06-07T04:18:07.907Z,100350.39
2019-06-07T04:20:40.731Z,100354.99
2019-06-07T04:23:27.408Z,100353.20
2019-06-07T04:25:41.850Z,100355.25
2019-06-07T04:28:06.765Z,100351.92
2019-06-07T04:30:41.989Z,100344.55
2019-06-07T04:33:12.429Z,100350.74
2019-06-07T04:35:42.877Z,100352.23
2019-06-07T04:38:13.546Z,100356.97
2019-06-07T04:40:43.149Z,100347.52
2019-06-07T04:43:11.338Z,100350.27
2019-06-07T04:45:47.988Z,100354.13
2019-06-07T04:48:11.315Z,100359.39
2019-06-07T04:50:43.446Z,100358.83
2019-06-07T04:53:09.072Z,100361.05
2019-06-07T04:55:39.857Z,100358.56
2019-06-07T04:58:06.554Z,100363.81
2019-06-07T05:00:58.439Z,100361.16
2019-06-07T05:03:06.528Z,100358.97
2019-06-07T05:05:37.490Z,100358.90
2019-06-07T05:08:07.518Z,100353.28
2019-06-07T05:10:35.095Z,100350.19
2019-06-07T05:13:03.952Z,100346.90
2019-06-07T05:15:32.142Z,100354.67
2019-06-07T05:18:00.024Z,100344.97
2019-06-07T05:20:27.814Z,100348.25
2019-06-07T05:22:55.734Z,100349.28
2019-06-07T05:25:23.544Z,100357.59
2019-06-07T05:27:51.372Z,100353.49
2019-06-07T05:31:02.984Z,100347.16
2019-06-07T05:33:07.277Z,100357.91
2019-06-07T05:35:35.665Z,100351.36
2019-06-07T05:38:05.840Z,100356.12
2019-06-07T05:40:39.436Z,100356.76
2019-06-07T05:43:15.612Z,100347.61
2019-06-07T05:45:46.871Z,100347.13
2019-06-07T05:48:13.193Z,100350.48
2019-06-07T05:50:49.920Z,100348.57
2019-06-07T05:53:10.735Z,100347.72
2019-06-07T05:55:41.630Z,100346.41
2019-06-07T05:58:08.193Z,100349.18
2019-06-07T06:00:36.887Z,100342.08
2019-06-07T06:03:06.278Z,100347.26
2019-06-07T06:05:41.325Z,100343.45
2019-06-07T06:08:04.124Z,100345.91
2019-06-07T06:10:31.972Z,100343.34
2019-06-07T06:12:59.756Z,100334.58
2019-06-07T06:15:42.406Z,100335.59
2019-06-07T06:17:57.254Z,100326.49
2019-06-07T06:20:32.969Z,100323.22
2019-06-07T06:22:54.875Z,100325.84
2019-06-07T06:25:32.919Z,100322.30
2019-06-07T06:28:12.468Z,100324.84
2019-06-07T06:30:23.557Z,100325.14
2019-06-07T06:32:57.704Z,100326.41
2019-06-07T06:35:21.040Z,100324.52
2019-06-07T06:37:52.965Z,100331.03
2019-06-07T06:40:18.614Z,100337.76
2019-06-07T06:42:50.100Z,100336.79
2019-06-07T06:45:17.599Z,100334.16
2019-06-07T06:47:47.657Z,100332.63
2019-06-07T06:50:16.423Z,100332.29
2019-06-07T06:52:47.980Z,100332.08
2019-06-07T06:55:16.585Z,100328.11
2019-06-07T06:57:45.861Z,100319.13
2019-06-07T07:00:15.235Z,100319.50
2019-06-07T07:03:32.626Z,100322.28
2019-06-07T07:05:14.398Z,100320.22
2019-06-07T07:07:45.181Z,100323.58
2019-06-07T07:10:18.294Z,100339.70
2019-06-07T07:12:47.949Z,100337.72
2019-06-07T07:15:17.360Z,100331.87
2019-06-07T07:17:58.353Z,100315.25
2019-06-07T07:20:14.830Z,100319.31
2019-06-07T07:22:44.756Z,100323.46
2019-06-07T07:25:12.953Z,100319.54
2019-06-07T07:27:41.981Z,100326.30
2019-06-07T07:32:45.614Z,100329.38
2019-06-07T07:35:12.882Z,100318.98
2019-06-07T07:37:40.629Z,100328.17
2019-06-07T07:40:55.529Z,100328.63
2019-06-07T07:42:39.131Z,100328.27
2019-06-07T07:45:06.944Z,100317.05
2019-06-07T07:47:35.077Z,100316.69
2019-06-07T07:50:03.687Z,100321.17
2019-06-07T07:52:31.496Z,100323.56
2019-06-07T07:54:59.310Z,100321.80
2019-06-07T07:57:28.490Z,100313.67
2019-06-07T08:00:13.244Z,100311.17
2019-06-07T08:02:26.054Z,100308.30
2019-06-07T08:05:16.616Z,100305.86
2019-06-07T08:07:23.643Z,100311.95
2019-06-07T08:09:55.699Z,100312.66
2019-06-07T08:12:21.372Z,100312.48
2019-06-07T08:14:53.439Z,100308.43
2019-06-07T08:17:20.169Z,100304.30
2019-06-07T08:19:49.423Z,100309.60
2019-06-07T08:22:17.712Z,100295.73
2019-06-07T08:24:45.503Z,100303.64
2019-06-07T08:27:25.690Z,100298.86
2019-06-07T08:29:45.609Z,100298.98
2019-06-07T08:32:12.790Z,100280.17
2019-06-07T08:34:40.608Z,100282.53
2019-06-07T08:37:08.384Z,100278.61
2019-06-07T08:39:36.177Z,100280.03
2019-06-07T08:42:15.481Z,100280.86
2019-06-07T08:44:33.792Z,100279.79
2019-06-07T08:47:18.885Z,100282.55
2019-06-07T08:49:31.329Z,100277.18
2019-06-07T08:52:10.075Z,100277.53
2019-06-07T08:54:29.234Z,100269.56
2019-06-07T08:57:17.978Z,100276.16
2019-06-07T08:59:26.789Z,100277.84
2019-06-07T09:01:59.764Z,100268.81
2019-06-07T09:04:24.312Z,100269.66
2019-06-07T09:07:07.241Z,100264.37
2019-06-07T09:09:21.861Z,100264.55
2019-06-07T09:11:49.676Z,100255.95
2019-06-07T09:14:18.851Z,100260.33
2019-06-07T09:16:46.683Z,100259.36
2019-06-07T09:19:14.463Z,100258.07
2019-06-07T09:21:42.259Z,100255.34
2019-06-07T09:24:11.767Z,100256.47
2019-06-07T09:26:39.699Z,100255.06
2019-06-07T09:29:11.484Z,100246.55
2019-06-07T09:31:51.925Z,100241.78
2019-06-07T09:34:13.743Z,100243.05
2019-06-07T09:36:37.259Z,100234.23
2019-06-07T09:39:10.105Z,100227.48
2019-06-07T09:41:47.802Z,100226.47
2019-06-07T09:44:21.538Z,100233.91
2019-06-07T09:46:35.869Z,100232.28
2019-06-07T09:49:25.974Z,100227.57
2019-06-07T09:51:33.484Z,100223.74
2019-06-07T09:54:07.676Z,100216.91
2019-06-07T09:56:31.053Z,100220.52
2019-06-07T09:59:01.705Z,100213.24
2019-06-07T10:01:28.543Z,100214.55
2019-06-07T10:03:58.759Z,100209.45
2019-06-07T10:06:26.214Z,100207.75
2019-06-07T10:10:08.260Z,100199.36
2019-06-07T10:11:23.754Z,100202.95
2019-06-07T10:13:51.581Z,100191.52
2019-06-07T10:16:19.357Z,100197.98
2019-06-07T10:18:47.214Z,100193.30
2019-06-07T10:21:15.658Z,100187.97
2019-06-07T10:23:43.878Z,100192.38
2019-06-07T10:26:11.775Z,100183.58
2019-06-07T10:28:39.587Z,100187.53
2019-06-07T10:31:09.515Z,100185.98
2019-06-07T10:33:37.337Z,100186.78
2019-06-07T10:36:08.618Z,100192.38
2019-06-07T10:38:36.924Z,100190.22
2019-06-07T10:41:07.066Z,100190.41
2019-06-07T10:43:34.868Z,100189.23
2019-06-07T10:46:03.682Z,100192.73
2019-06-07T10:48:31.874Z,100197.80
2019-06-07T10:50:59.695Z,100196.36
2019-06-07T10:53:30.476Z,100195.49
2019-06-07T10:55:58.322Z,100192.25
2019-06-07T10:58:26.172Z,100187.27
2019-06-07T11:00:54.046Z,100181.84
2019-06-07T11:03:21.880Z,100181.86
2019-06-07T11:05:49.676Z,100182.30
2019-06-07T11:08:17.446Z,100174.68
2019-06-07T11:10:45.318Z,100178.36
2019-06-07T11:13:14.366Z,100176.25
2019-06-07T11:15:42.332Z,100164.54
2019-06-07T11:18:10.378Z,100175.34
2019-06-07T11:20:38.886Z,100180.78
2019-06-07T11:23:08.147Z,100175.92
2019-06-07T11:25:36.440Z,100176.20
2019-06-07T11:28:04.359Z,100164.11
2019-06-07T11:30:32.185Z,100166.26
2019-06-07T11:32:59.978Z,100162.92
2019-06-07T11:35:27.777Z,100154.02
2019-06-07T11:37:55.626Z,100163.36
2019-06-07T11:40:33.957Z,100156.66
2019-06-07T11:42:53.130Z,100149.55
2019-06-07T11:45:20.961Z,100144.91
2019-06-07T11:47:48.750Z,100141.28
2019-06-07T11:50:17.640Z,100130.39
2019-06-07T11:52:46.532Z,100135.59
2019-06-07T11:55:15.858Z,100122.16
2019-06-07T11:57:44.165Z,100119.52
2019-06-07T12:00:16.362Z,100116.80
2019-06-07T12:02:44.437Z,100123.33
2019-06-07T12:05:16.191Z,100124.08
2019-06-07T12:07:42.118Z,100120.27
2019-06-07T12:10:10.903Z,100111.98
2019-06-07T12:12:39.345Z,100103.47
2019-06-07T12:15:08.941Z,100098.66
2019-06-07T12:17:36.933Z,100095.63
2019-06-07T12:20:08.572Z,100099.81
2019-06-07T12:22:35.506Z,100091.37
2019-06-07T12:25:05.906Z,100083.31
2019-06-07T12:27:33.892Z,100084.61
2019-06-07T12:30:09.772Z,100079.09
2019-06-07T12:32:31.533Z,100084.14
2019-06-07T12:34:59.357Z,100071.78
2019-06-07T12:37:42.657Z,100068.34
2019-06-07T12:39:56.865Z,100064.67
2019-06-07T12:42:24.712Z,100064.86
2019-06-07T12:44:52.583Z,100055.23
2019-06-07T12:47:21.088Z,100060.89
2019-06-07T12:49:49.214Z,100054.17
2019-06-07T12:52:19.439Z,100048.03
2019-06-07T12:54:46.809Z,100043.45
2019-06-07T12:57:16.239Z,100043.26
2019-06-07T12:59:44.115Z,100041.04
2019-06-07T13:02:11.957Z,100043.03
2019-06-07T13:04:39.827Z,100041.42
2019-06-07T13:07:07.697Z,100034.52
2019-06-07T13:09:36.316Z,100036.48
2019-06-07T13:12:04.473Z,100025.32
2019-06-07T13:14:32.301Z,100026.47
2019-06-07T13:17:00.179Z,100036.61
2019-06-07T13:19:28.606Z,100032.37
2019-06-07T13:21:56.801Z,100032.91
2019-06-07T13:24:25.289Z,100033.52
2019-06-07T13:26:53.607Z,100035.15
2019-06-07T13:29:22.651Z,100024.95
2019-06-07T13:31:53.214Z,100018.43
2019-06-07T13:34:22.407Z,100021.30
2019-06-07T13:36:50.847Z,100017.34
2019-06-07T13:39:19.535Z,100011.60
2019-06-07T13:41:48.347Z,100007.47
2019-06-07T13:44:18.682Z,100006.43
2019-06-07T13:46:46.725Z,100005.44
2019-06-07T13:49:14.555Z,99990.94
2019-06-07T13:51:42.379Z,99979.17
2019-06-07T13:54:10.193Z,99977.58
2019-06-07T13:56:37.994Z,99975.11
2019-06-07T13:59:05.837Z,99967.70
2019-06-07T14:01:33.673Z,99969.45
2019-06-07T14:04:01.537Z,99977.39
2019-06-07T14:06:30.234Z,99970.83
2019-06-07T14:08:58.667Z,99970.00
2019-06-07T14:11:27.781Z,99965.66
2019-06-07T14:13:56.052Z,99957.72
2019-06-07T14:16:24.313Z,99951.95
2019-06-07T14:18:52.524Z,99947.44
2019-06-07T14:21:20.449Z,99957.19
2019-06-07T14:23:49.437Z,99955.63
2019-06-07T14:26:17.698Z,99949.61
2019-06-07T14:28:45.532Z,99951.30
2019-06-07T14:31:13.327Z,99936.91
2019-06-07T14:33:41.247Z,99942.88
2019-06-07T14:36:09.594Z,99935.34
2019-06-07T14:38:37.838Z,99934.59
2019-06-07T14:41:06.193Z,99927.66
2019-06-07T14:43:34.210Z,99925.69
2019-06-07T14:46:02.402Z,99928.84
2019-06-07T14:48:30.453Z,99925.09
2019-06-07T14:50:58.578Z,99930.40
2019-06-07T14:53:26.665Z,99928.61
2019-06-07T14:55:54.934Z,99931.27
2019-06-07T14:58:22.749Z,99917.11
2019-06-07T15:00:50.590Z,99927.19
2019-06-07T15:03:18.406Z,99923.38
2019-06-07T15:05:46.260Z,99912.30
2019-06-07T15:08:14.126Z,99905.11
2019-06-07T15:10:42.048Z,99900.41
2019-06-07T15:13:09.883Z,99894.91
2019-06-07T15:15:38.926Z,99893.76
2019-06-07T15:18:07.311Z,99891.36
2019-06-07T15:20:36.434Z,99888.67
2019-06-07T15:23:04.664Z,99887.98
2019-06-07T15:25:33.611Z,99889.00
2019-06-07T15:28:01.402Z,99885.13
2019-06-07T15:30:29.613Z,99884.24
2019-06-07T15:32:59.752Z,99878.08
2019-06-07T15:35:28.090Z,99871.12
2019-06-07T15:37:56.272Z,99873.94
2019-06-07T15:40:24.084Z,99868.55
2019-06-07T15:42:53.322Z,99863.50
2019-06-07T15:45:22.361Z,99874.14
2019-06-07T15:47:50.208Z,99869.73
2019-06-07T15:50:18.341Z,99865.84
2019-06-07T15:52:46.175Z,99860.91
2019-06-07T15:55:15.242Z,99859.42
2019-06-07T15:57:43.070Z,99856.14
2019-06-07T16:00:12.957Z,99852.97
2019-06-07T16:02:41.785Z,99852.82
2019-06-07T16:05:13.730Z,99848.67
2019-06-07T16:07:42.724Z,99854.20
2019-06-07T16:10:12.465Z,99856.81
2019-06-07T16:12:57.656Z,99852.70
2019-06-07T16:15:12.625Z,99854.91
2019-06-07T16:17:42.132Z,99853.77
2019-06-07T16:20:11.471Z,99857.25
2019-06-07T16:22:39.735Z,99856.44
2019-06-07T16:25:08.145Z,99847.52
2019-06-07T16:27:36.707Z,99851.13
2019-06-07T16:30:09.270Z,99861.95
2019-06-07T16:32:37.462Z,99850.33
2019-06-07T16:35:06.621Z,99856.19
2019-06-07T16:37:34.443Z,99844.14
2019-06-07T16:40:02.702Z,99847.66
2019-06-07T16:42:30.525Z,99840.41
2019-06-07T16:44:58.335Z,99844.83
2019-06-07T16:47:26.161Z,99841.37
2019-06-07T16:49:53.959Z,99835.19
2019-06-07T16:52:21.789Z,99827.31
2019-06-07T16:54:49.596Z,99839.81
2019-06-07T16:57:17.534Z,99830.79
2019-06-07T16:59:48.900Z,99826.89
2019-06-07T17:02:15.192Z,99818.34
2019-06-07T17:04:43.560Z,99820.55
2019-06-07T17:07:11.663Z,99817.89
2019-06-07T17:09:40.077Z,99819.39
2019-06-07T17:12:08.215Z,99822.67
2019-06-07T17:14:36.208Z,99811.06
2019-06-07T17:17:04.218Z,99813.88
2019-06-07T17:19:32.064Z,99803.78
2019-06-07T17:21:59.895Z,99807.45
2019-06-07T17:24:27.767Z,99801.63
2019-06-07T17:26:55.585Z,99802.06
2019-06-07T17:29:23.392Z,99800.58
2019-06-07T17:31:51.236Z,99792.77
2019-06-07T17:34:19.122Z,99783.40
2019-06-07T17:36:46.909Z,99794.30
2019-06-07T17:39:14.729Z,99788.86
2019-06-07T17:41:58.627Z,99786.27
2019-06-07T17:44:12.301Z,99784.17
2019-06-07T17:46:41.495Z,99778.53
2019-06-07T17:49:09.700Z,99774.56
2019-06-07T17:51:37.601Z,99767.53
2019-06-07T17:54:05.429Z,99767.53
2019-06-07T17:56:33.310Z,99774.19
2019-06-07T17:59:01.170Z,99772.51
2019-06-07T18:01:41.193Z,99763.98
2019-06-07T18:03:59.465Z,99751.98
2019-06-07T18:06:29.317Z,99745.73
2019-06-07T18:09:00.954Z,99731.06
2019-06-07T18:11:28.789Z,99718.59
2019-06-07T18:14:09.421Z,99717.21
2019-06-07T18:16:26.336Z,99709.17
2019-06-07T18:18:54.848Z,99716.16
2019-06-07T18:21:23.116Z,99724.26
2019-06-07T18:23:52.876Z,99729.28
2019-06-07T18:26:20.910Z,99738.81
2019-06-07T18:28:48.735Z,99746.41
2019-06-07T18:31:16.567Z,99753.86
2019-06-07T18:33:44.398Z,99754.45
2019-06-07T18:36:12.260Z,99757.59
2019-06-07T18:38:40.088Z,99759.59
2019-06-07T18:41:07.928Z,99760.30
2019-06-07T18:43:35.761Z,99759.59
2019-06-07T18:46:04.020Z,99763.94
2019-06-07T18:48:31.859Z,99758.69
2019-06-07T18:50:59.749Z,99755.77
2019-06-07T18:53:27.646Z,99761.66
2019-06-07T18:55:56.240Z,99759.37
2019-06-07T18:58:24.503Z,99761.95
2019-06-07T19:00:53.789Z,99768.06
2019-06-07T19:03:22.059Z,99768.56
2019-06-07T19:05:51.985Z,99773.77
2019-06-07T19:08:20.576Z,99774.28
2019-06-07T19:10:48.724Z,99776.02
2019-06-07T19:13:16.881Z,99781.71
2019-06-07T19:15:44.700Z,99779.55
2019-06-07T19:18:12.539Z,99774.55
2019-06-07T19:20:40.434Z,99781.46
2019-06-07T19:23:08.308Z,99776.14
2019-06-07T19:25:36.173Z,99782.72
2019-06-07T19:28:04.470Z,99779.97
2019-06-07T19:30:32.408Z,99780.60
2019-06-07T19:33:01.373Z,99784.44
2019-06-07T19:35:29.825Z,99777.19
2019-06-07T19:37:57.911Z,99772.67
2019-06-07T19:40:26.100Z,99779.31
2019-06-07T19:42:54.155Z,99788.34
2019-06-07T19:45:31.514Z,99793.05
2019-06-07T19:47:54.427Z,99797.34
2019-06-07T19:50:22.733Z,99793.02
2019-06-07T19:52:50.556Z,99793.56
2019-06-07T19:55:18.459Z,99788.70
2019-06-07T19:57:49.831Z,99786.81
2019-06-07T20:00:16.400Z,99788.92
2019-06-07T20:02:44.256Z,99792.23
2019-06-07T20:05:17.085Z,99804.73
2019-06-07T20:07:44.948Z,99811.47
2019-06-07T20:10:14.125Z,99812.23
2019-06-07T20:12:42.033Z,99817.06
2019-06-07T20:15:27.687Z,99816.72
2019-06-07T20:17:42.068Z,99818.89
2019-06-07T20:20:11.489Z,99825.72
2019-06-07T20:22:39.340Z,99830.57
2019-06-07T20:25:07.478Z,99837.77
2019-06-07T20:27:35.343Z,99835.36
2019-06-07T20:30:04.346Z,99837.70
2019-06-07T20:32:32.498Z,99825.00
2019-06-07T20:37:27.801Z,99812.31
2019-06-07T20:39:56.948Z,99816.13
2019-06-07T20:42:25.264Z,99806.98
2019-06-07T20:44:53.055Z,99814.25
2019-06-07T20:47:21.008Z,99819.98
2019-06-07T20:49:48.809Z,99809.13
2019-06-07T20:52:16.732Z,99808.74
2019-06-07T20:54:44.525Z,99801.91
2019-06-07T20:57:12.358Z,99801.70
2019-06-07T20:59:40.137Z,99802.01
2019-06-07T21:02:09.527Z,99800.48
2019-06-07T21:04:37.789Z,99792.23
2019-06-07T21:07:05.673Z,99785.52
2019-06-07T21:09:33.513Z,99793.05
2019-06-07T21:12:01.674Z,99789.94
2019-06-07T21:14:29.913Z,99783.66
2019-06-07T21:16:57.707Z,99786.65
2019-06-07T21:19:25.540Z,99789.70
2019-06-07T21:21:53.356Z,99792.11
2019-06-07T21:24:21.178Z,99790.73
2019-06-07T21:26:49.014Z,99800.09
2019-06-07T21:29:16.862Z,99806.22
2019-06-07T21:31:44.679Z,99809.20
2019-06-07T21:34:14.131Z,99819.77
2019-06-07T21:36:42.186Z,99827.73
2019-06-07T21:39:10.329Z,99829.31
2019-06-07T21:41:38.393Z,99845.90
2019-06-07T21:44:06.308Z,99858.52
2019-06-07T21:46:34.174Z,99878.39
2019-06-07T21:49:02.234Z,99879.14
2019-06-07T21:51:30.370Z,99892.88
2019-06-07T21:53:58.198Z,99890.17
2019-06-07T21:56:26.272Z,99898.48
2019-06-07T21:58:54.141Z,99889.41
2019-06-07T22:01:29.522Z,99889.65
2019-06-07T22:03:58.698Z,99892.09
2019-06-07T22:06:26.597Z,99892.88
2019-06-07T22:08:54.401Z,99898.50
2019-06-07T22:11:22.397Z,99890.71
2019-06-07T22:13:50.232Z,99898.41
2019-06-07T22:16:28.709Z,99903.43
2019-06-07T22:18:47.811Z,99900.45
2019-06-07T22:21:15.649Z,99902.77
2019-06-07T22:23:43.892Z,99903.47
2019-06-07T22:26:13.201Z,99901.39
2019-06-07T22:28:41.439Z,99923.92
2019-06-07T22:31:10.602Z,99971.68
2019-06-07T22:33:38.905Z,100021.68
2019-06-07T22:36:06.886Z,100074.11
2019-06-07T22:38:35.014Z,100071.14
2019-06-07T22:41:02.813Z,100063.83
2019-06-07T22:43:30.627Z,100070.59
2019-06-07T22:45:58.442Z,100065.66
2019-06-07T22:48:26.306Z,100072.73
2019-06-07T22:50:54.102Z,100065.10
2019-06-07T22:53:21.894Z,100055.78
2019-06-07T22:55:56.666Z,100056.20
2019-06-07T22:58:24.517Z,100050.87
2019-06-07T23:00:52.328Z,100061.10
2019-06-07T23:03:20.144Z,100056.98
2019-06-07T23:05:48.023Z,100054.19
2019-06-07T23:08:16.938Z,100062.60
2019-06-07T23:10:45.120Z,100071.30
2019-06-07T23:13:13.565Z,100070.83
2019-06-07T23:15:41.855Z,100092.27
2019-06-07T23:18:09.725Z,100112.85
2019-06-07T23:20:37.528Z,100120.59
2019-06-07T23:23:05.348Z,100127.00
2019-06-07T23:25:33.214Z,100139.32
2019-06-07T23:28:01.096Z,100145.11
2019-06-07T23:30:28.899Z,100150.05
2019-06-07T23:32:56.693Z,100162.25
2019-06-07T23:35:24.485Z,100164.78
2019-06-07T23:37:52.295Z,100180.55
2019-06-07T23:40:21.449Z,100187.89
2019-06-07T23:42:50.536Z,100190.95
2019-06-07T23:45:19.532Z,100200.64
2019-06-07T23:47:47.750Z,100213.95
2019-06-07T23:50:15.856Z,100212.80
2019-06-07T23:52:43.678Z,100220.75
2019-06-07T23:55:12.158Z,100236.63
2019-06-07T23:57:41.058Z,100237.41
